sensor_id;sensor_type;location;lat;lon;timestamp;P1;durP1;ratioP1;P2;durP2;ratioP2
64483;SDS011;50862;51.642;7.964;2022-08-19T00:01:53;23.80;;;21.83;;
64483;SDS011;50862;51.642;7.964;2022-08-19T00:04:26;23.85;;;22.15;;
64483;SDS011;50862;51.642;7.964;2022-08-19T00:06:56;23.45;;;21.85;;
64483;SDS011;50862;51.642;7.964;2022-08-19T00:09:26;23.20;;;21.65;;
64483;SDS011;50862;51.642;7.964;2022-08-19T00:11:55;23.52;;;21.92;;
64483;SDS011;50862;51.642;7.964;2022-08-19T00:14:25;25.35;;;23.40;;
64483;SDS011;50862;51.642;7.964;2022-08-19T00:16:53;25.02;;;23.35;;
64483;SDS011;50862;51.642;7.964;2022-08-19T00:19:22;22.98;;;21.42;;
64483;SDS011;50862;51.642;7.964;2022-08-19T00:21:51;22.38;;;20.60;;
64483;SDS011;50862;51.642;7.964;2022-08-19T00:24:19;22.45;;;20.85;;
64483;SDS011;50862;51.642;7.964;2022-08-19T00:26:48;26.50;;;24.25;;
64483;SDS011;50862;51.642;7.964;2022-08-19T00:29:18;23.55;;;21.85;;
64483;SDS011;50862;51.642;7.964;2022-08-19T00:31:49;23.08;;;21.38;;
64483;SDS011;50862;51.642;7.964;2022-08-19T00:34:21;22.98;;;21.38;;
64483;SDS011;50862;51.642;7.964;2022-08-19T00:36:50;21.02;;;19.50;;
64483;SDS011;50862;51.642;7.964;2022-08-19T00:39:18;22.60;;;20.88;;
64483;SDS011;50862;51.642;7.964;2022-08-19T00:41:48;20.55;;;18.88;;
64483;SDS011;50862;51.642;7.964;2022-08-19T00:44:19;21.85;;;20.25;;
64483;SDS011;50862;51.642;7.964;2022-08-19T00:46:53;21.45;;;19.63;;
64483;SDS011;50862;51.642;7.964;2022-08-19T00:49:24;22.20;;;20.70;;
64483;SDS011;50862;51.642;7.964;2022-08-19T00:51:57;25.90;;;23.88;;
64483;SDS011;50862;51.642;7.964;2022-08-19T00:54:28;21.58;;;19.98;;
64483;SDS011;50862;51.642;7.964;2022-08-19T00:56:59;21.42;;;20.02;;
64483;SDS011;50862;51.642;7.964;2022-08-19T00:59:29;18.58;;;17.35;;
64483;SDS011;50862;51.642;7.964;2022-08-19T01:02:17;19.42;;;17.95;;
64483;SDS011;50862;51.642;7.964;2022-08-19T01:04:46;18.05;;;16.95;;
64483;SDS011;50862;51.642;7.964;2022-08-19T01:07:14;20.40;;;19.13;;
64483;SDS011;50862;51.642;7.964;2022-08-19T01:09:45;19.52;;;18.33;;
64483;SDS011;50862;51.642;7.964;2022-08-19T01:12:14;18.55;;;17.13;;
64483;SDS011;50862;51.642;7.964;2022-08-19T01:14:45;19.25;;;17.85;;
64483;SDS011;50862;51.642;7.964;2022-08-19T01:17:15;20.48;;;18.98;;
64483;SDS011;50862;51.642;7.964;2022-08-19T01:19:44;18.77;;;17.38;;
64483;SDS011;50862;51.642;7.964;2022-08-19T01:22:15;17.45;;;16.05;;
64483;SDS011;50862;51.642;7.964;2022-08-19T01:24:58;19.58;;;18.27;;
64483;SDS011;50862;51.642;7.964;2022-08-19T01:27:26;19.10;;;17.80;;
64483;SDS011;50862;51.642;7.964;2022-08-19T01:30:09;20.83;;;19.23;;
64483;SDS011;50862;51.642;7.964;2022-08-19T01:32:38;18.58;;;17.20;;
64483;SDS011;50862;51.642;7.964;2022-08-19T01:35:07;18.23;;;16.58;;
64483;SDS011;50862;51.642;7.964;2022-08-19T01:37:43;21.33;;;19.73;;
64483;SDS011;50862;51.642;7.964;2022-08-19T01:40:15;18.75;;;17.40;;
64483;SDS011;50862;51.642;7.964;2022-08-19T01:42:45;19.80;;;18.50;;
64483;SDS011;50862;51.642;7.964;2022-08-19T01:45:13;21.95;;;20.52;;
64483;SDS011;50862;51.642;7.964;2022-08-19T01:47:42;18.92;;;17.38;;
64483;SDS011;50862;51.642;7.964;2022-08-19T01:50:27;20.63;;;19.15;;
64483;SDS011;50862;51.642;7.964;2022-08-19T01:52:57;22.13;;;20.23;;
64483;SDS011;50862;51.642;7.964;2022-08-19T01:55:33;21.30;;;19.83;;
64483;SDS011;50862;51.642;7.964;2022-08-19T01:58:07;21.33;;;19.88;;
64483;SDS011;50862;51.642;7.964;2022-08-19T02:00:38;20.05;;;18.75;;
64483;SDS011;50862;51.642;7.964;2022-08-19T02:03:06;17.42;;;16.23;;
64483;SDS011;50862;51.642;7.964;2022-08-19T02:05:35;21.40;;;20.08;;
64483;SDS011;50862;51.642;7.964;2022-08-19T02:08:04;20.20;;;18.95;;
64483;SDS011;50862;51.642;7.964;2022-08-19T02:10:37;18.55;;;17.38;;
64483;SDS011;50862;51.642;7.964;2022-08-19T02:13:06;20.27;;;18.73;;
64483;SDS011;50862;51.642;7.964;2022-08-19T02:15:36;21.48;;;19.88;;
64483;SDS011;50862;51.642;7.964;2022-08-19T02:18:05;18.45;;;17.15;;
64483;SDS011;50862;51.642;7.964;2022-08-19T02:20:34;18.83;;;17.23;;
64483;SDS011;50862;51.642;7.964;2022-08-19T02:23:02;19.58;;;18.25;;
64483;SDS011;50862;51.642;7.964;2022-08-19T02:25:40;19.80;;;18.30;;
64483;SDS011;50862;51.642;7.964;2022-08-19T02:28:10;21.20;;;19.60;;
64483;SDS011;50862;51.642;7.964;2022-08-19T02:30:44;18.75;;;17.45;;
64483;SDS011;50862;51.642;7.964;2022-08-19T02:33:13;19.90;;;18.42;;
64483;SDS011;50862;51.642;7.964;2022-08-19T02:35:41;20.48;;;18.85;;
64483;SDS011;50862;51.642;7.964;2022-08-19T02:38:10;21.60;;;19.80;;
64483;SDS011;50862;51.642;7.964;2022-08-19T02:40:55;21.52;;;19.83;;
64483;SDS011;50862;51.642;7.964;2022-08-19T02:43:25;23.67;;;21.75;;
64483;SDS011;50862;51.642;7.964;2022-08-19T02:45:58;21.65;;;19.77;;
64483;SDS011;50862;51.642;7.964;2022-08-19T02:48:26;20.05;;;18.50;;
64483;SDS011;50862;51.642;7.964;2022-08-19T02:50:55;22.80;;;21.08;;
64483;SDS011;50862;51.642;7.964;2022-08-19T02:53:24;21.73;;;20.08;;
64483;SDS011;50862;51.642;7.964;2022-08-19T02:55:56;23.75;;;21.40;;
64483;SDS011;50862;51.642;7.964;2022-08-19T02:58:24;22.15;;;20.15;;
64483;SDS011;50862;51.642;7.964;2022-08-19T03:00:54;21.77;;;20.08;;
64483;SDS011;50862;51.642;7.964;2022-08-19T03:03:23;20.77;;;19.08;;
64483;SDS011;50862;51.642;7.964;2022-08-19T03:06:02;22.98;;;20.73;;
64483;SDS011;50862;51.642;7.964;2022-08-19T03:08:31;21.42;;;19.60;;
64483;SDS011;50862;51.642;7.964;2022-08-19T03:11:01;23.00;;;21.00;;
64483;SDS011;50862;51.642;7.964;2022-08-19T03:13:30;22.95;;;21.05;;
64483;SDS011;50862;51.642;7.964;2022-08-19T03:15:58;22.48;;;20.58;;
64483;SDS011;50862;51.642;7.964;2022-08-19T03:18:27;23.77;;;21.73;;
64483;SDS011;50862;51.642;7.964;2022-08-19T03:20:55;23.08;;;21.17;;
64483;SDS011;50862;51.642;7.964;2022-08-19T03:23:23;22.65;;;20.70;;
64483;SDS011;50862;51.642;7.964;2022-08-19T03:25:52;23.50;;;21.27;;
64483;SDS011;50862;51.642;7.964;2022-08-19T03:28:30;20.65;;;18.98;;
64483;SDS011;50862;51.642;7.964;2022-08-19T03:31:01;21.23;;;19.52;;
64483;SDS011;50862;51.642;7.964;2022-08-19T03:33:52;23.55;;;21.77;;
64483;SDS011;50862;51.642;7.964;2022-08-19T03:36:22;21.67;;;19.65;;
64483;SDS011;50862;51.642;7.964;2022-08-19T03:38:54;22.40;;;20.65;;
64483;SDS011;50862;51.642;7.964;2022-08-19T03:41:25;22.77;;;20.88;;
64483;SDS011;50862;51.642;7.964;2022-08-19T03:44:12;21.83;;;20.13;;
64483;SDS011;50862;51.642;7.964;2022-08-19T03:46:44;21.02;;;19.20;;
64483;SDS011;50862;51.642;7.964;2022-08-19T03:49:13;19.08;;;17.55;;
64483;SDS011;50862;51.642;7.964;2022-08-19T03:51:43;19.08;;;17.48;;
64483;SDS011;50862;51.642;7.964;2022-08-19T03:54:13;20.60;;;18.73;;
64483;SDS011;50862;51.642;7.964;2022-08-19T03:56:43;15.90;;;14.50;;
64483;SDS011;50862;51.642;7.964;2022-08-19T03:59:15;17.98;;;16.67;;
64483;SDS011;50862;51.642;7.964;2022-08-19T04:01:44;16.52;;;15.23;;
64483;SDS011;50862;51.642;7.964;2022-08-19T04:04:13;19.40;;;17.92;;
64483;SDS011;50862;51.642;7.964;2022-08-19T04:06:42;19.85;;;18.13;;
64483;SDS011;50862;51.642;7.964;2022-08-19T04:09:13;20.25;;;18.45;;
64483;SDS011;50862;51.642;7.964;2022-08-19T04:11:44;17.23;;;15.82;;
64483;SDS011;50862;51.642;7.964;2022-08-19T04:14:17;21.38;;;19.27;;
64483;SDS011;50862;51.642;7.964;2022-08-19T04:16:48;20.02;;;18.08;;
64483;SDS011;50862;51.642;7.964;2022-08-19T04:19:17;19.70;;;18.10;;
64483;SDS011;50862;51.642;7.964;2022-08-19T04:21:47;18.60;;;16.92;;
64483;SDS011;50862;51.642;7.964;2022-08-19T04:24:17;18.23;;;16.60;;
64483;SDS011;50862;51.642;7.964;2022-08-19T04:26:46;20.95;;;18.90;;
64483;SDS011;50862;51.642;7.964;2022-08-19T04:29:17;20.90;;;19.05;;
64483;SDS011;50862;51.642;7.964;2022-08-19T04:31:53;22.75;;;20.48;;
64483;SDS011;50862;51.642;7.964;2022-08-19T04:34:23;21.63;;;19.52;;
64483;SDS011;50862;51.642;7.964;2022-08-19T04:36:55;21.13;;;19.25;;
64483;SDS011;50862;51.642;7.964;2022-08-19T04:39:26;17.15;;;15.75;;
64483;SDS011;50862;51.642;7.964;2022-08-19T04:42:10;16.65;;;15.35;;
64483;SDS011;50862;51.642;7.964;2022-08-19T04:44:58;16.95;;;15.65;;
64483;SDS011;50862;51.642;7.964;2022-08-19T04:47:26;18.35;;;16.85;;
64483;SDS011;50862;51.642;7.964;2022-08-19T04:50:18;17.73;;;16.27;;
64483;SDS011;50862;51.642;7.964;2022-08-19T04:52:49;19.40;;;17.67;;
64483;SDS011;50862;51.642;7.964;2022-08-19T04:55:19;22.10;;;20.17;;
64483;SDS011;50862;51.642;7.964;2022-08-19T04:57:47;21.92;;;19.95;;
64483;SDS011;50862;51.642;7.964;2022-08-19T05:00:18;24.20;;;21.98;;
64483;SDS011;50862;51.642;7.964;2022-08-19T05:02:46;21.85;;;19.85;;
64483;SDS011;50862;51.642;7.964;2022-08-19T05:05:15;22.40;;;20.45;;
64483;SDS011;50862;51.642;7.964;2022-08-19T05:07:44;23.15;;;20.80;;
64483;SDS011;50862;51.642;7.964;2022-08-19T05:10:12;24.92;;;22.63;;
64483;SDS011;50862;51.642;7.964;2022-08-19T05:12:40;23.65;;;21.35;;
64483;SDS011;50862;51.642;7.964;2022-08-19T05:15:09;26.40;;;24.00;;
64483;SDS011;50862;51.642;7.964;2022-08-19T05:17:39;25.75;;;23.30;;
64483;SDS011;50862;51.642;7.964;2022-08-19T05:20:28;28.35;;;24.92;;
64483;SDS011;50862;51.642;7.964;2022-08-19T05:23:14;24.15;;;21.63;;
64483;SDS011;50862;51.642;7.964;2022-08-19T05:25:47;25.88;;;23.45;;
64483;SDS011;50862;51.642;7.964;2022-08-19T05:28:18;27.17;;;24.38;;
64483;SDS011;50862;51.642;7.964;2022-08-19T05:30:46;26.95;;;24.05;;
64483;SDS011;50862;51.642;7.964;2022-08-19T05:33:18;28.05;;;25.15;;
64483;SDS011;50862;51.642;7.964;2022-08-19T05:35:46;25.42;;;22.55;;
64483;SDS011;50862;51.642;7.964;2022-08-19T05:38:15;25.08;;;22.73;;
64483;SDS011;50862;51.642;7.964;2022-08-19T05:40:44;24.52;;;22.33;;
64483;SDS011;50862;51.642;7.964;2022-08-19T05:43:13;26.85;;;24.40;;
64483;SDS011;50862;51.642;7.964;2022-08-19T05:45:42;28.23;;;25.63;;
64483;SDS011;50862;51.642;7.964;2022-08-19T05:48:11;25.25;;;22.67;;
64483;SDS011;50862;51.642;7.964;2022-08-19T05:50:42;28.30;;;25.33;;
64483;SDS011;50862;51.642;7.964;2022-08-19T05:53:11;26.63;;;23.80;;
64483;SDS011;50862;51.642;7.964;2022-08-19T05:55:40;29.48;;;24.55;;
64483;SDS011;50862;51.642;7.964;2022-08-19T05:58:09;26.98;;;24.27;;
64483;SDS011;50862;51.642;7.964;2022-08-19T06:00:38;33.05;;;26.30;;
64483;SDS011;50862;51.642;7.964;2022-08-19T06:03:06;30.13;;;27.05;;
64483;SDS011;50862;51.642;7.964;2022-08-19T06:05:37;30.65;;;27.33;;
64483;SDS011;50862;51.642;7.964;2022-08-19T06:08:18;30.30;;;27.10;;
64483;SDS011;50862;51.642;7.964;2022-08-19T06:11:11;28.23;;;25.40;;
64483;SDS011;50862;51.642;7.964;2022-08-19T06:13:45;31.25;;;28.15;;
64483;SDS011;50862;51.642;7.964;2022-08-19T06:16:24;31.90;;;28.48;;
64483;SDS011;50862;51.642;7.964;2022-08-19T06:18:53;29.38;;;26.30;;
64483;SDS011;50862;51.642;7.964;2022-08-19T06:21:24;32.58;;;29.20;;
64483;SDS011;50862;51.642;7.964;2022-08-19T06:23:55;30.95;;;27.63;;
64483;SDS011;50862;51.642;7.964;2022-08-19T06:26:24;34.75;;;30.67;;
64483;SDS011;50862;51.642;7.964;2022-08-19T06:28:53;31.88;;;28.48;;
64483;SDS011;50862;51.642;7.964;2022-08-19T06:31:23;31.90;;;26.92;;
64483;SDS011;50862;51.642;7.964;2022-08-19T06:33:52;36.13;;;32.20;;
64483;SDS011;50862;51.642;7.964;2022-08-19T06:36:21;33.28;;;28.35;;
64483;SDS011;50862;51.642;7.964;2022-08-19T06:38:53;37.35;;;32.78;;
64483;SDS011;50862;51.642;7.964;2022-08-19T06:41:24;34.10;;;30.58;;
64483;SDS011;50862;51.642;7.964;2022-08-19T06:43:53;34.45;;;28.38;;
64483;SDS011;50862;51.642;7.964;2022-08-19T06:46:23;37.25;;;29.88;;
64483;SDS011;50862;51.642;7.964;2022-08-19T06:48:52;35.40;;;31.17;;
64483;SDS011;50862;51.642;7.964;2022-08-19T06:51:21;34.50;;;30.35;;
64483;SDS011;50862;51.642;7.964;2022-08-19T06:53:52;36.50;;;32.78;;
64483;SDS011;50862;51.642;7.964;2022-08-19T06:56:24;37.70;;;33.35;;
64483;SDS011;50862;51.642;7.964;2022-08-19T06:58:58;39.70;;;33.42;;
64483;SDS011;50862;51.642;7.964;2022-08-19T07:01:26;34.20;;;30.80;;
64483;SDS011;50862;51.642;7.964;2022-08-19T07:03:55;38.85;;;32.17;;
64483;SDS011;50862;51.642;7.964;2022-08-19T07:06:23;36.65;;;32.45;;
64483;SDS011;50862;51.642;7.964;2022-08-19T07:09:10;42.67;;;36.60;;
64483;SDS011;50862;51.642;7.964;2022-08-19T07:11:46;37.83;;;34.08;;
64483;SDS011;50862;51.642;7.964;2022-08-19T07:14:16;41.47;;;35.70;;
64483;SDS011;50862;51.642;7.964;2022-08-19T07:16:46;38.88;;;34.90;;
64483;SDS011;50862;51.642;7.964;2022-08-19T07:19:16;36.83;;;33.13;;
64483;SDS011;50862;51.642;7.964;2022-08-19T07:21:46;40.80;;;36.60;;
64483;SDS011;50862;51.642;7.964;2022-08-19T07:24:16;40.50;;;36.67;;
64483;SDS011;50862;51.642;7.964;2022-08-19T07:26:46;40.17;;;36.08;;
64483;SDS011;50862;51.642;7.964;2022-08-19T07:29:17;41.03;;;36.85;;
64483;SDS011;50862;51.642;7.964;2022-08-19T07:31:54;39.38;;;35.78;;
64483;SDS011;50862;51.642;7.964;2022-08-19T07:34:26;39.00;;;35.53;;
64483;SDS011;50862;51.642;7.964;2022-08-19T07:36:55;40.03;;;36.15;;
64483;SDS011;50862;51.642;7.964;2022-08-19T07:39:25;39.95;;;36.33;;
64483;SDS011;50862;51.642;7.964;2022-08-19T07:41:57;39.00;;;35.15;;
64483;SDS011;50862;51.642;7.964;2022-08-19T07:44:26;42.97;;;35.03;;
64483;SDS011;50862;51.642;7.964;2022-08-19T07:46:56;41.05;;;37.50;;
64483;SDS011;50862;51.642;7.964;2022-08-19T07:49:26;39.42;;;35.95;;
64483;SDS011;50862;51.642;7.964;2022-08-19T07:51:55;39.22;;;35.35;;
64483;SDS011;50862;51.642;7.964;2022-08-19T07:54:25;37.60;;;34.72;;
64483;SDS011;50862;51.642;7.964;2022-08-19T07:56:56;38.67;;;35.22;;
64483;SDS011;50862;51.642;7.964;2022-08-19T07:59:24;36.22;;;33.20;;
64483;SDS011;50862;51.642;7.964;2022-08-19T08:01:52;36.72;;;33.45;;
64483;SDS011;50862;51.642;7.964;2022-08-19T08:04:21;35.70;;;32.70;;
64483;SDS011;50862;51.642;7.964;2022-08-19T08:07:07;39.47;;;36.22;;
64483;SDS011;50862;51.642;7.964;2022-08-19T08:09:57;38.15;;;35.05;;
64483;SDS011;50862;51.642;7.964;2022-08-19T08:12:31;35.75;;;32.60;;
64483;SDS011;50862;51.642;7.964;2022-08-19T08:15:04;35.22;;;32.03;;
64483;SDS011;50862;51.642;7.964;2022-08-19T08:17:38;35.55;;;32.63;;
64483;SDS011;50862;51.642;7.964;2022-08-19T08:20:17;36.55;;;33.65;;
64483;SDS011;50862;51.642;7.964;2022-08-19T08:22:46;35.20;;;32.47;;
64483;SDS011;50862;51.642;7.964;2022-08-19T08:25:33;34.53;;;31.92;;
64483;SDS011;50862;51.642;7.964;2022-08-19T08:28:04;36.58;;;32.95;;
64483;SDS011;50862;51.642;7.964;2022-08-19T08:30:36;35.83;;;32.92;;
64483;SDS011;50862;51.642;7.964;2022-08-19T08:33:10;37.30;;;34.38;;
64483;SDS011;50862;51.642;7.964;2022-08-19T08:35:39;37.40;;;34.47;;
64483;SDS011;50862;51.642;7.964;2022-08-19T08:38:09;33.75;;;30.73;;
64483;SDS011;50862;51.642;7.964;2022-08-19T08:40:38;34.50;;;32.05;;
64483;SDS011;50862;51.642;7.964;2022-08-19T08:43:13;36.70;;;33.78;;
64483;SDS011;50862;51.642;7.964;2022-08-19T08:45:58;33.30;;;30.98;;
64483;SDS011;50862;51.642;7.964;2022-08-19T08:48:34;37.00;;;34.35;;
64483;SDS011;50862;51.642;7.964;2022-08-19T08:51:09;33.88;;;31.63;;
64483;SDS011;50862;51.642;7.964;2022-08-19T08:53:45;36.47;;;33.38;;
64483;SDS011;50862;51.642;7.964;2022-08-19T08:56:21;35.40;;;32.97;;
64483;SDS011;50862;51.642;7.964;2022-08-19T08:58:54;36.78;;;34.17;;
64483;SDS011;50862;51.642;7.964;2022-08-19T09:01:26;36.80;;;34.22;;
64483;SDS011;50862;51.642;7.964;2022-08-19T09:03:56;36.47;;;33.92;;
64483;SDS011;50862;51.642;7.964;2022-08-19T09:06:31;37.35;;;34.83;;
64483;SDS011;50862;51.642;7.964;2022-08-19T09:09:10;37.30;;;34.92;;
64483;SDS011;50862;51.642;7.964;2022-08-19T09:11:47;34.35;;;32.03;;
64483;SDS011;50862;51.642;7.964;2022-08-19T09:14:34;33.47;;;31.20;;
64483;SDS011;50862;51.642;7.964;2022-08-19T09:17:16;33.17;;;30.85;;
64483;SDS011;50862;51.642;7.964;2022-08-19T09:19:48;32.97;;;30.85;;
64483;SDS011;50862;51.642;7.964;2022-08-19T09:22:19;32.30;;;30.40;;
64483;SDS011;50862;51.642;7.964;2022-08-19T09:24:51;32.85;;;30.65;;
64483;SDS011;50862;51.642;7.964;2022-08-19T09:27:20;34.60;;;32.25;;
64483;SDS011;50862;51.642;7.964;2022-08-19T09:30:11;37.25;;;34.53;;
64483;SDS011;50862;51.642;7.964;2022-08-19T09:32:42;34.35;;;31.83;;
64483;SDS011;50862;51.642;7.964;2022-08-19T09:35:12;34.78;;;32.03;;
64483;SDS011;50862;51.642;7.964;2022-08-19T09:37:41;32.40;;;30.50;;
64483;SDS011;50862;51.642;7.964;2022-08-19T09:40:11;32.85;;;30.65;;
64483;SDS011;50862;51.642;7.964;2022-08-19T09:42:41;35.67;;;32.80;;
64483;SDS011;50862;51.642;7.964;2022-08-19T09:45:19;33.60;;;31.45;;
64483;SDS011;50862;51.642;7.964;2022-08-19T09:47:50;34.42;;;32.35;;
64483;SDS011;50862;51.642;7.964;2022-08-19T09:50:21;33.83;;;31.42;;
64483;SDS011;50862;51.642;7.964;2022-08-19T09:52:50;33.47;;;31.50;;
64483;SDS011;50862;51.642;7.964;2022-08-19T09:55:23;32.63;;;30.60;;
64483;SDS011;50862;51.642;7.964;2022-08-19T09:57:58;30.85;;;28.60;;
64483;SDS011;50862;51.642;7.964;2022-08-19T10:00:28;30.70;;;28.80;;
64483;SDS011;50862;51.642;7.964;2022-08-19T10:02:57;27.10;;;25.50;;
64483;SDS011;50862;51.642;7.964;2022-08-19T10:05:26;26.02;;;24.42;;
64483;SDS011;50862;51.642;7.964;2022-08-19T10:08:14;28.55;;;26.75;;
64483;SDS011;50862;51.642;7.964;2022-08-19T10:10:43;31.27;;;29.48;;
64483;SDS011;50862;51.642;7.964;2022-08-19T10:13:13;27.45;;;25.95;;
64483;SDS011;50862;51.642;7.964;2022-08-19T10:15:44;28.98;;;26.98;;
64483;SDS011;50862;51.642;7.964;2022-08-19T10:18:14;30.23;;;28.50;;
64483;SDS011;50862;51.642;7.964;2022-08-19T10:20:44;30.33;;;28.00;;
64483;SDS011;50862;51.642;7.964;2022-08-19T10:23:18;28.38;;;26.77;;
64483;SDS011;50862;51.642;7.964;2022-08-19T10:25:48;29.48;;;27.88;;
64483;SDS011;50862;51.642;7.964;2022-08-19T10:28:19;29.77;;;28.08;;
64483;SDS011;50862;51.642;7.964;2022-08-19T10:30:50;28.65;;;27.20;;
64483;SDS011;50862;51.642;7.964;2022-08-19T10:33:19;28.65;;;27.10;;
64483;SDS011;50862;51.642;7.964;2022-08-19T10:36:08;28.08;;;26.50;;
64483;SDS011;50862;51.642;7.964;2022-08-19T10:38:38;29.98;;;28.48;;
64483;SDS011;50862;51.642;7.964;2022-08-19T10:41:19;27.77;;;26.17;;
64483;SDS011;50862;51.642;7.964;2022-08-19T10:43:50;30.30;;;28.75;;
64483;SDS011;50862;51.642;7.964;2022-08-19T10:46:22;29.75;;;28.15;;
64483;SDS011;50862;51.642;7.964;2022-08-19T10:48:52;29.17;;;27.42;;
64483;SDS011;50862;51.642;7.964;2022-08-19T10:51:20;27.10;;;25.42;;
64483;SDS011;50862;51.642;7.964;2022-08-19T10:54:13;28.27;;;26.77;;
64483;SDS011;50862;51.642;7.964;2022-08-19T10:56:42;27.50;;;26.05;;
64483;SDS011;50862;51.642;7.964;2022-08-19T10:59:19;28.77;;;27.17;;
64483;SDS011;50862;51.642;7.964;2022-08-19T11:01:53;28.52;;;27.02;;
64483;SDS011;50862;51.642;7.964;2022-08-19T11:04:26;28.20;;;26.70;;
64483;SDS011;50862;51.642;7.964;2022-08-19T11:06:55;26.83;;;25.40;;
64483;SDS011;50862;51.642;7.964;2022-08-19T11:09:24;28.17;;;26.73;;
64483;SDS011;50862;51.642;7.964;2022-08-19T11:11:59;27.98;;;26.45;;
64483;SDS011;50862;51.642;7.964;2022-08-19T11:14:30;30.52;;;28.65;;
64483;SDS011;50862;51.642;7.964;2022-08-19T11:17:02;30.00;;;28.33;;
64483;SDS011;50862;51.642;7.964;2022-08-19T11:19:31;30.30;;;28.70;;
64483;SDS011;50862;51.642;7.964;2022-08-19T11:22:00;30.73;;;28.92;;
64483;SDS011;50862;51.642;7.964;2022-08-19T11:24:29;31.25;;;29.45;;
64483;SDS011;50862;51.642;7.964;2022-08-19T11:27:03;27.33;;;25.90;;
64483;SDS011;50862;51.642;7.964;2022-08-19T11:29:33;28.92;;;27.33;;
64483;SDS011;50862;51.642;7.964;2022-08-19T11:32:04;28.40;;;26.60;;
64483;SDS011;50862;51.642;7.964;2022-08-19T11:34:35;27.65;;;26.25;;
64483;SDS011;50862;51.642;7.964;2022-08-19T11:37:04;26.52;;;25.17;;
64483;SDS011;50862;51.642;7.964;2022-08-19T11:39:35;28.10;;;26.40;;
64483;SDS011;50862;51.642;7.964;2022-08-19T11:42:05;26.73;;;25.38;;
64483;SDS011;50862;51.642;7.964;2022-08-19T11:44:48;27.30;;;25.85;;
64483;SDS011;50862;51.642;7.964;2022-08-19T11:47:18;25.92;;;24.55;;
64483;SDS011;50862;51.642;7.964;2022-08-19T11:49:46;27.35;;;25.75;;
64483;SDS011;50862;51.642;7.964;2022-08-19T11:52:15;27.38;;;25.92;;
64483;SDS011;50862;51.642;7.964;2022-08-19T11:54:44;29.55;;;28.05;;
64483;SDS011;50862;51.642;7.964;2022-08-19T11:57:12;26.48;;;25.00;;
64483;SDS011;50862;51.642;7.964;2022-08-19T11:59:47;25.63;;;24.33;;
64483;SDS011;50862;51.642;7.964;2022-08-19T12:02:18;25.05;;;23.75;;
64483;SDS011;50862;51.642;7.964;2022-08-19T12:04:47;28.67;;;27.23;;
64483;SDS011;50862;51.642;7.964;2022-08-19T12:07:16;25.98;;;24.42;;
64483;SDS011;50862;51.642;7.964;2022-08-19T12:09:44;27.73;;;26.35;;
64483;SDS011;50862;51.642;7.964;2022-08-19T12:12:14;26.05;;;24.67;;
64483;SDS011;50862;51.642;7.964;2022-08-19T12:14:42;24.90;;;23.33;;
64483;SDS011;50862;51.642;7.964;2022-08-19T12:17:13;26.67;;;25.20;;
64483;SDS011;50862;51.642;7.964;2022-08-19T12:19:42;26.35;;;24.92;;
64483;SDS011;50862;51.642;7.964;2022-08-19T12:22:11;26.92;;;25.58;;
64483;SDS011;50862;51.642;7.964;2022-08-19T12:24:39;26.15;;;24.85;;
64483;SDS011;50862;51.642;7.964;2022-08-19T12:27:07;26.80;;;24.90;;
64483;SDS011;50862;51.642;7.964;2022-08-19T12:29:38;22.60;;;21.45;;
64483;SDS011;50862;51.642;7.964;2022-08-19T12:32:07;28.23;;;26.85;;
64483;SDS011;50862;51.642;7.964;2022-08-19T12:34:37;27.05;;;25.70;;
64483;SDS011;50862;51.642;7.964;2022-08-19T12:37:07;26.48;;;25.15;;
64483;SDS011;50862;51.642;7.964;2022-08-19T12:39:37;29.00;;;27.05;;
64483;SDS011;50862;51.642;7.964;2022-08-19T12:42:07;29.35;;;27.35;;
64483;SDS011;50862;51.642;7.964;2022-08-19T12:44:37;25.30;;;24.05;;
64483;SDS011;50862;51.642;7.964;2022-08-19T12:47:08;26.20;;;24.95;;
64483;SDS011;50862;51.642;7.964;2022-08-19T12:49:39;25.52;;;24.27;;
64483;SDS011;50862;51.642;7.964;2022-08-19T12:52:23;27.60;;;26.10;;
64483;SDS011;50862;51.642;7.964;2022-08-19T12:54:54;27.27;;;25.88;;
64483;SDS011;50862;51.642;7.964;2022-08-19T12:57:23;27.83;;;26.50;;
64483;SDS011;50862;51.642;7.964;2022-08-19T12:59:58;26.30;;;24.85;;
64483;SDS011;50862;51.642;7.964;2022-08-19T13:02:30;26.92;;;25.50;;
64483;SDS011;50862;51.642;7.964;2022-08-19T13:05:04;26.02;;;24.70;;
64483;SDS011;50862;51.642;7.964;2022-08-19T13:07:39;26.00;;;24.60;;
64483;SDS011;50862;51.642;7.964;2022-08-19T13:10:10;28.25;;;26.80;;
64483;SDS011;50862;51.642;7.964;2022-08-19T13:12:41;26.98;;;25.58;;
64483;SDS011;50862;51.642;7.964;2022-08-19T13:15:10;27.17;;;25.55;;
64483;SDS011;50862;51.642;7.964;2022-08-19T13:17:40;26.10;;;24.75;;
64483;SDS011;50862;51.642;7.964;2022-08-19T13:20:10;27.65;;;26.10;;
64483;SDS011;50862;51.642;7.964;2022-08-19T13:22:40;27.70;;;26.02;;
64483;SDS011;50862;51.642;7.964;2022-08-19T13:25:08;28.38;;;26.67;;
64483;SDS011;50862;51.642;7.964;2022-08-19T13:27:38;28.08;;;26.52;;
64483;SDS011;50862;51.642;7.964;2022-08-19T13:30:07;28.98;;;27.40;;
64483;SDS011;50862;51.642;7.964;2022-08-19T13:32:54;28.00;;;26.45;;
64483;SDS011;50862;51.642;7.964;2022-08-19T13:35:38;28.58;;;27.05;;
64483;SDS011;50862;51.642;7.964;2022-08-19T13:38:09;27.02;;;25.42;;
64483;SDS011;50862;51.642;7.964;2022-08-19T13:40:39;26.95;;;25.42;;
64483;SDS011;50862;51.642;7.964;2022-08-19T13:43:08;28.75;;;27.10;;
64483;SDS011;50862;51.642;7.964;2022-08-19T13:45:48;28.02;;;26.42;;
64483;SDS011;50862;51.642;7.964;2022-08-19T13:48:22;26.95;;;25.55;;
64483;SDS011;50862;51.642;7.964;2022-08-19T13:50:52;25.73;;;24.42;;
64483;SDS011;50862;51.642;7.964;2022-08-19T13:53:22;27.75;;;25.98;;
64483;SDS011;50862;51.642;7.964;2022-08-19T13:55:50;27.15;;;25.55;;
64483;SDS011;50862;51.642;7.964;2022-08-19T13:58:20;26.98;;;25.58;;
64483;SDS011;50862;51.642;7.964;2022-08-19T14:00:48;27.45;;;26.05;;
64483;SDS011;50862;51.642;7.964;2022-08-19T14:03:16;28.58;;;27.08;;
64483;SDS011;50862;51.642;7.964;2022-08-19T14:05:45;27.42;;;25.83;;
64483;SDS011;50862;51.642;7.964;2022-08-19T14:08:13;28.58;;;26.90;;
64483;SDS011;50862;51.642;7.964;2022-08-19T14:10:43;28.15;;;26.58;;
64483;SDS011;50862;51.642;7.964;2022-08-19T14:13:13;28.60;;;27.08;;
64483;SDS011;50862;51.642;7.964;2022-08-19T14:15:43;27.65;;;26.23;;
64483;SDS011;50862;51.642;7.964;2022-08-19T14:18:11;28.67;;;27.13;;
64483;SDS011;50862;51.642;7.964;2022-08-19T14:20:40;30.05;;;28.45;;
64483;SDS011;50862;51.642;7.964;2022-08-19T14:23:09;30.35;;;28.50;;
64483;SDS011;50862;51.642;7.964;2022-08-19T14:25:38;28.83;;;27.23;;
64483;SDS011;50862;51.642;7.964;2022-08-19T14:28:08;30.92;;;29.20;;
64483;SDS011;50862;51.642;7.964;2022-08-19T14:30:36;29.65;;;28.15;;
64483;SDS011;50862;51.642;7.964;2022-08-19T14:33:06;31.00;;;29.00;;
64483;SDS011;50862;51.642;7.964;2022-08-19T14:35:35;26.75;;;25.45;;
64483;SDS011;50862;51.642;7.964;2022-08-19T14:38:04;32.13;;;30.30;;
64483;SDS011;50862;51.642;7.964;2022-08-19T14:40:34;29.98;;;28.50;;
64483;SDS011;50862;51.642;7.964;2022-08-19T14:43:03;27.15;;;25.83;;
64483;SDS011;50862;51.642;7.964;2022-08-19T14:45:34;27.48;;;25.67;;
64483;SDS011;50862;51.642;7.964;2022-08-19T14:48:06;30.77;;;28.90;;